sensor_id;sensor_type;location;lat;lon;timestamp;pressure;altitude;pressure_sealevel;temperature;humidity
48892;BME280;50130;52.150;5.236;2022-12-05T00:01:31;101705.0;;;4.91;91.51
48892;BME280;50130;52.150;5.236;2022-12-05T00:03:07;101706.0;;;5.07;91.29
48892;BME280;50130;52.150;5.236;2022-12-05T00:04:43;101703.0;;;4.91;91.57
48892;BME280;50130;52.150;5.236;2022-12-05T00:07:58;101702.0;;;4.92;91.36
48892;BME280;50130;52.150;5.236;2022-12-05T00:09:34;101703.0;;;4.95;91.46
48892;BME280;50130;52.150;5.236;2022-12-05T00:11:11;101700.0;;;4.97;91.34
48892;BME280;50130;52.150;5.236;2022-12-05T00:14:25;101698.0;;;4.91;91.47
48892;BME280;50130;52.150;5.236;2022-12-05T00:16:01;101701.0;;;5.07;91.04
48892;BME280;50130;52.150;5.236;2022-12-05T00:17:41;101701.0;;;5.03;91.32
48892;BME280;50130;52.150;5.236;2022-12-05T00:20:53;101698.0;;;4.95;91.49
48892;BME280;50130;52.150;5.236;2022-12-05T00:22:30;101697.0;;;4.86;91.94
48892;BME280;50130;52.150;5.236;2022-12-05T00:24:09;101698.0;;;5.08;91.25
48892;BME280;50130;52.150;5.236;2022-12-05T00:25:47;101707.0;;;4.99;91.2
48892;BME280;50130;52.150;5.236;2022-12-05T00:28:59;101707.0;;;5.09;91.32
48892;BME280;50130;52.150;5.236;2022-12-05T00:30:39;101706.0;;;5.08;90.99
48892;BME280;50130;52.150;5.236;2022-12-05T00:32:14;101702.0;;;5.16;90.74
48892;BME280;50130;52.150;5.236;2022-12-05T00:35:29;101705.0;;;5.11;91.09
48892;BME280;50130;52.150;5.236;2022-12-05T00:37:05;101703.0;;;5.07;91.21
48892;BME280;50130;52.150;5.236;2022-12-05T00:38:42;101709.0;;;5.03;91.3
48892;BME280;50130;52.150;5.236;2022-12-05T00:40:18;101707.0;;;5.03;91.77
48892;BME280;50130;52.150;5.236;2022-12-05T00:43:31;101706.0;;;5.03;91.95
48892;BME280;50130;52.150;5.236;2022-12-05T00:45:09;101705.0;;;5.07;92.0
48892;BME280;50130;52.150;5.236;2022-12-05T00:46:45;101709.0;;;5.08;91.96
48892;BME280;50130;52.150;5.236;2022-12-05T00:49:57;101707.0;;;5.11;91.55
48892;BME280;50130;52.150;5.236;2022-12-05T00:51:35;101713.0;;;5.08;92.19
48892;BME280;50130;52.150;5.236;2022-12-05T00:53:13;101707.0;;;5.13;92.23
48892;BME280;50130;52.150;5.236;2022-12-05T00:56:27;101705.0;;;5.15;91.87
48892;BME280;50130;52.150;5.236;2022-12-05T00:58:03;101709.0;;;5.12;91.96
48892;BME280;50130;52.150;5.236;2022-12-05T00:59:39;101710.0;;;5.03;92.7
48892;BME280;50130;52.150;5.236;2022-12-05T01:01:18;101706.0;;;5.12;92.75
48892;BME280;50130;52.150;5.236;2022-12-05T01:04:33;101707.0;;;5.19;92.55
48892;BME280;50130;52.150;5.236;2022-12-05T01:06:10;101707.0;;;5.16;92.46
48892;BME280;50130;52.150;5.236;2022-12-05T01:07:48;101708.0;;;5.39;91.91
48892;BME280;50130;52.150;5.236;2022-12-05T01:11:03;101706.0;;;5.26;92.26
48892;BME280;50130;52.150;5.236;2022-12-05T01:12:40;101706.0;;;5.38;91.89
48892;BME280;50130;52.150;5.236;2022-12-05T01:14:19;101703.0;;;5.28;92.47
48892;BME280;50130;52.150;5.236;2022-12-05T01:15:56;101705.0;;;5.16;93.0
48892;BME280;50130;52.150;5.236;2022-12-05T01:19:12;101700.0;;;5.12;93.54
48892;BME280;50130;52.150;5.236;2022-12-05T01:20:52;101703.0;;;5.13;93.91
48892;BME280;50130;52.150;5.236;2022-12-05T01:22:29;101700.0;;;5.13;93.88
48892;BME280;50130;52.150;5.236;2022-12-05T01:25:45;101699.0;;;5.16;94.06
48892;BME280;50130;52.150;5.236;2022-12-05T01:27:24;101703.0;;;5.13;93.95
48892;BME280;50130;52.150;5.236;2022-12-05T01:29:02;101707.0;;;5.04;94.69
48892;BME280;50130;52.150;5.236;2022-12-05T01:30:41;101706.0;;;5.03;94.91
48892;BME280;50130;52.150;5.236;2022-12-05T01:33:56;101705.0;;;5.07;95.18
48892;BME280;50130;52.150;5.236;2022-12-05T01:35:35;101705.0;;;5.26;94.55
48892;BME280;50130;52.150;5.236;2022-12-05T01:37:13;101710.0;;;5.11;94.99
48892;BME280;50130;52.150;5.236;2022-12-05T01:40:27;101708.0;;;5.13;95.15
48892;BME280;50130;52.150;5.236;2022-12-05T01:42:04;101706.0;;;5.25;94.67
48892;BME280;50130;52.150;5.236;2022-12-05T01:44:00;101712.0;;;5.09;95.35
48892;BME280;50130;52.150;5.236;2022-12-05T01:45:39;101712.0;;;5.13;95.5
48892;BME280;50130;52.150;5.236;2022-12-05T01:47:17;101707.0;;;5.16;95.83
48892;BME280;50130;52.150;5.236;2022-12-05T01:50:37;101714.0;;;5.04;96.11
48892;BME280;50130;52.150;5.236;2022-12-05T01:52:16;101714.0;;;5.04;96.59
48892;BME280;50130;52.150;5.236;2022-12-05T01:53:55;101705.0;;;5.17;96.0
48892;BME280;50130;52.150;5.236;2022-12-05T01:57:11;101712.0;;;5.2;95.77
48892;BME280;50130;52.150;5.236;2022-12-05T01:58:49;101715.0;;;5.14;96.07
48892;BME280;50130;52.150;5.236;2022-12-05T02:00:28;101714.0;;;5.13;96.42
48892;BME280;50130;52.150;5.236;2022-12-05T02:02:05;101708.0;;;5.23;96.47
48892;BME280;50130;52.150;5.236;2022-12-05T02:05:24;101708.0;;;5.18;96.32
48892;BME280;50130;52.150;5.236;2022-12-05T02:07:03;101701.0;;;5.22;96.51
48892;BME280;50130;52.150;5.236;2022-12-05T02:08:40;101703.0;;;5.23;96.71
48892;BME280;50130;52.150;5.236;2022-12-05T02:10:17;101705.0;;;5.22;96.64
48892;BME280;50130;52.150;5.236;2022-12-05T02:13:58;101707.0;;;5.19;96.87
48892;BME280;50130;52.150;5.236;2022-12-05T02:15:42;101705.0;;;5.2;96.78
48892;BME280;50130;52.150;5.236;2022-12-05T02:17:24;101708.0;;;5.12;97.05
48892;BME280;50130;52.150;5.236;2022-12-05T02:19:31;101707.0;;;5.09;97.45
48892;BME280;50130;52.150;5.236;2022-12-05T02:21:57;101706.0;;;5.17;97.38
48892;BME280;50130;52.150;5.236;2022-12-05T02:23:58;101705.0;;;5.23;97.12
48892;BME280;50130;52.150;5.236;2022-12-05T02:26:01;101702.0;;;5.31;96.67
48892;BME280;50130;52.150;5.236;2022-12-05T02:29:53;101702.0;;;5.42;96.67
48892;BME280;50130;52.150;5.236;2022-12-05T02:31:45;101698.0;;;5.4;96.59
48892;BME280;50130;52.150;5.236;2022-12-05T02:33:31;101700.0;;;5.31;96.96
48892;BME280;50130;52.150;5.236;2022-12-05T02:37:02;101696.0;;;5.18;97.46
48892;BME280;50130;52.150;5.236;2022-12-05T02:38:50;101699.0;;;5.34;97.05
48892;BME280;50130;52.150;5.236;2022-12-05T02:40:40;101700.0;;;5.3;97.41
48892;BME280;50130;52.150;5.236;2022-12-05T02:42:20;101701.0;;;5.36;97.11
48892;BME280;50130;52.150;5.236;2022-12-05T02:44:05;101701.0;;;5.36;96.79
48892;BME280;50130;52.150;5.236;2022-12-05T02:47:30;101699.0;;;5.39;96.98
48892;BME280;50130;52.150;5.236;2022-12-05T02:49:09;101701.0;;;5.37;97.0
48892;BME280;50130;52.150;5.236;2022-12-05T02:50:50;101705.0;;;5.33;97.54
48892;BME280;50130;52.150;5.236;2022-12-05T02:52:29;101701.0;;;5.26;97.49
48892;BME280;50130;52.150;5.236;2022-12-05T02:55:50;101701.0;;;5.43;97.2
48892;BME280;50130;52.150;5.236;2022-12-05T02:57:27;101699.0;;;5.3;97.48
48892;BME280;50130;52.150;5.236;2022-12-05T02:59:04;101700.0;;;5.23;97.78
48892;BME280;50130;52.150;5.236;2022-12-05T03:00:43;101701.0;;;5.4;97.41
48892;BME280;50130;52.150;5.236;2022-12-05T03:04:03;101701.0;;;5.38;97.22
48892;BME280;50130;52.150;5.236;2022-12-05T03:05:46;101702.0;;;5.41;97.33
48892;BME280;50130;52.150;5.236;2022-12-05T03:07:28;101706.0;;;5.45;97.37
48892;BME280;50130;52.150;5.236;2022-12-05T03:09:08;101701.0;;;5.43;97.16
48892;BME280;50130;52.150;5.236;2022-12-05T03:12:29;101703.0;;;5.4;97.19
48892;BME280;50130;52.150;5.236;2022-12-05T03:14:12;101696.0;;;5.38;97.38
48892;BME280;50130;52.150;5.236;2022-12-05T03:15:55;101700.0;;;5.31;97.55
48892;BME280;50130;52.150;5.236;2022-12-05T03:17:40;101702.0;;;5.39;97.42
48892;BME280;50130;52.150;5.236;2022-12-05T03:19:24;101705.0;;;5.41;97.49
48892;BME280;50130;52.150;5.236;2022-12-05T03:22:49;101705.0;;;5.47;96.92
48892;BME280;50130;52.150;5.236;2022-12-05T03:24:29;101707.0;;;5.42;97.38
48892;BME280;50130;52.150;5.236;2022-12-05T03:26:21;101705.0;;;5.35;97.21
48892;BME280;50130;52.150;5.236;2022-12-05T03:28:12;101708.0;;;5.4;97.2
48892;BME280;50130;52.150;5.236;2022-12-05T03:29:55;101703.0;;;5.39;97.28
48892;BME280;50130;52.150;5.236;2022-12-05T03:33:23;101708.0;;;5.46;97.24
48892;BME280;50130;52.150;5.236;2022-12-05T03:35:05;101709.0;;;5.52;97.07
48892;BME280;50130;52.150;5.236;2022-12-05T03:36:48;101710.0;;;5.53;96.96
48892;BME280;50130;52.150;5.236;2022-12-05T03:38:32;101710.0;;;5.46;97.0
48892;BME280;50130;52.150;5.236;2022-12-05T03:42:01;101714.0;;;5.55;96.46
48892;BME280;50130;52.150;5.236;2022-12-05T03:43:47;101716.0;;;5.7;95.92
48892;BME280;50130;52.150;5.236;2022-12-05T03:45:35;101721.0;;;5.62;96.25
48892;BME280;50130;52.150;5.236;2022-12-05T03:47:19;101724.0;;;5.53;96.45
48892;BME280;50130;52.150;5.236;2022-12-05T03:49:02;101724.0;;;5.55;96.66
48892;BME280;50130;52.150;5.236;2022-12-05T03:50:46;101724.0;;;5.72;96.08
48892;BME280;50130;52.150;5.236;2022-12-05T03:54:11;101727.0;;;5.55;96.46
48892;BME280;50130;52.150;5.236;2022-12-05T03:55:56;101723.0;;;5.58;96.56
48892;BME280;50130;52.150;5.236;2022-12-05T03:57:40;101725.0;;;5.48;96.66
48892;BME280;50130;52.150;5.236;2022-12-05T03:59:24;101726.0;;;5.47;96.93
48892;BME280;50130;52.150;5.236;2022-12-05T04:01:09;101730.0;;;5.6;96.7
48892;BME280;50130;52.150;5.236;2022-12-05T04:04:33;101731.0;;;5.55;96.51
48892;BME280;50130;52.150;5.236;2022-12-05T04:06:17;101732.0;;;5.55;96.37
48892;BME280;50130;52.150;5.236;2022-12-05T04:07:58;101731.0;;;5.56;96.43
48892;BME280;50130;52.150;5.236;2022-12-05T04:09:43;101734.0;;;5.6;96.62
48892;BME280;50130;52.150;5.236;2022-12-05T04:13:20;101733.0;;;5.57;96.46
48892;BME280;50130;52.150;5.236;2022-12-05T04:15:05;101736.0;;;5.64;96.18
48892;BME280;50130;52.150;5.236;2022-12-05T04:17:22;101740.0;;;5.44;96.71
48892;BME280;50130;52.150;5.236;2022-12-05T04:19:04;101735.0;;;5.45;97.19
48892;BME280;50130;52.150;5.236;2022-12-05T04:21:54;101734.0;;;5.55;96.7
48892;BME280;50130;52.150;5.236;2022-12-05T04:23:31;101735.0;;;5.53;96.68
48892;BME280;50130;52.150;5.236;2022-12-05T04:25:59;101738.0;;;5.48;97.14
48892;BME280;50130;52.150;5.236;2022-12-05T04:27:49;101731.0;;;5.55;97.01
48892;BME280;50130;52.150;5.236;2022-12-05T04:29:43;101731.0;;;5.65;96.56
48892;BME280;50130;52.150;5.236;2022-12-05T04:31:31;101728.0;;;5.51;97.13
48892;BME280;50130;52.150;5.236;2022-12-05T04:33:12;101728.0;;;5.62;96.88
48892;BME280;50130;52.150;5.236;2022-12-05T04:34:57;101726.0;;;5.58;96.8
48892;BME280;50130;52.150;5.236;2022-12-05T04:38:24;101727.0;;;5.52;97.29
48892;BME280;50130;52.150;5.236;2022-12-05T04:40:07;101726.0;;;5.63;96.95
48892;BME280;50130;52.150;5.236;2022-12-05T04:41:49;101726.0;;;5.52;97.59
48892;BME280;50130;52.150;5.236;2022-12-05T04:43:32;101727.0;;;5.5;97.67
48892;BME280;50130;52.150;5.236;2022-12-05T04:45:18;101730.0;;;5.54;97.77
48892;BME280;50130;52.150;5.236;2022-12-05T04:48:39;101726.0;;;5.54;97.71
48892;BME280;50130;52.150;5.236;2022-12-05T04:50:18;101730.0;;;5.5;98.16
48892;BME280;50130;52.150;5.236;2022-12-05T04:52:01;101725.0;;;5.53;98.21
48892;BME280;50130;52.150;5.236;2022-12-05T04:53:40;101721.0;;;5.6;97.91
48892;BME280;50130;52.150;5.236;2022-12-05T04:57:04;101727.0;;;5.59;97.98
48892;BME280;50130;52.150;5.236;2022-12-05T04:58:45;101727.0;;;5.65;97.73
48892;BME280;50130;52.150;5.236;2022-12-05T05:00:21;101725.0;;;5.67;97.9
48892;BME280;50130;52.150;5.236;2022-12-05T05:02:03;101730.0;;;5.6;98.24
48892;BME280;50130;52.150;5.236;2022-12-05T05:05:25;101726.0;;;5.57;98.48
48892;BME280;50130;52.150;5.236;2022-12-05T05:07:05;101722.0;;;5.61;98.24
48892;BME280;50130;52.150;5.236;2022-12-05T05:08:46;101724.0;;;5.57;98.87
48892;BME280;50130;52.150;5.236;2022-12-05T05:10:30;101722.0;;;5.59;98.75
48892;BME280;50130;52.150;5.236;2022-12-05T05:13:46;101723.0;;;5.6;99.03
48892;BME280;50130;52.150;5.236;2022-12-05T05:15:23;101726.0;;;5.69;98.64
48892;BME280;50130;52.150;5.236;2022-12-05T05:16:59;101725.0;;;5.67;98.54
48892;BME280;50130;52.150;5.236;2022-12-05T05:18:35;101728.0;;;5.76;98.32
48892;BME280;50130;52.150;5.236;2022-12-05T05:22:03;101730.0;;;5.68;98.55
48892;BME280;50130;52.150;5.236;2022-12-05T05:23:40;101730.0;;;5.77;98.41
48892;BME280;50130;52.150;5.236;2022-12-05T05:25:17;101730.0;;;5.83;98.17
48892;BME280;50130;52.150;5.236;2022-12-05T05:26:53;101732.0;;;5.74;98.57
48892;BME280;50130;52.150;5.236;2022-12-05T05:30:06;101725.0;;;5.8;98.51
48892;BME280;50130;52.150;5.236;2022-12-05T05:31:43;101734.0;;;5.71;98.51
48892;BME280;50130;52.150;5.236;2022-12-05T05:33:20;101728.0;;;5.77;98.75
48892;BME280;50130;52.150;5.236;2022-12-05T05:36:33;101731.0;;;5.71;99.18
48892;BME280;50130;52.150;5.236;2022-12-05T05:38:09;101733.0;;;5.7;99.3
48892;BME280;50130;52.150;5.236;2022-12-05T05:39:46;101733.0;;;5.74;99.33
48892;BME280;50130;52.150;5.236;2022-12-05T05:43:00;101733.0;;;5.81;98.83
48892;BME280;50130;52.150;5.236;2022-12-05T05:44:36;101734.0;;;5.76;99.11
48892;BME280;50130;52.150;5.236;2022-12-05T05:46:14;101738.0;;;5.79;99.27
48892;BME280;50130;52.150;5.236;2022-12-05T05:47:52;101736.0;;;5.81;99.1
48892;BME280;50130;52.150;5.236;2022-12-05T05:51:06;101739.0;;;5.85;99.01
48892;BME280;50130;52.150;5.236;2022-12-05T05:52:44;101739.0;;;5.82;99.05
48892;BME280;50130;52.150;5.236;2022-12-05T05:54:20;101734.0;;;5.98;98.87
48892;BME280;50130;52.150;5.236;2022-12-05T05:57:37;101737.0;;;5.87;99.01
48892;BME280;50130;52.150;5.236;2022-12-05T05:59:13;101739.0;;;5.85;98.99
48892;BME280;50130;52.150;5.236;2022-12-05T06:00:49;101734.0;;;5.86;99.42
48892;BME280;50130;52.150;5.236;2022-12-05T06:04:07;101736.0;;;5.93;98.78
48892;BME280;50130;52.150;5.236;2022-12-05T06:05:43;101738.0;;;6.02;98.76
48892;BME280;50130;52.150;5.236;2022-12-05T06:07:19;101736.0;;;5.98;98.85
48892;BME280;50130;52.150;5.236;2022-12-05T06:08:56;101738.0;;;6.05;98.6
48892;BME280;50130;52.150;5.236;2022-12-05T06:12:08;101737.0;;;6.04;98.43
48892;BME280;50130;52.150;5.236;2022-12-05T06:13:44;101738.0;;;6.06;98.49
48892;BME280;50130;52.150;5.236;2022-12-05T06:15:20;101733.0;;;6.12;98.58
48892;BME280;50130;52.150;5.236;2022-12-05T06:18:33;101739.0;;;6.25;98.09
48892;BME280;50130;52.150;5.236;2022-12-05T06:20:10;101735.0;;;6.1;98.35
48892;BME280;50130;52.150;5.236;2022-12-05T06:21:47;101740.0;;;6.27;98.04
48892;BME280;50130;52.150;5.236;2022-12-05T06:23:25;101732.0;;;6.26;97.7
48892;BME280;50130;52.150;5.236;2022-12-05T06:26:37;101737.0;;;6.3;98.17
48892;BME280;50130;52.150;5.236;2022-12-05T06:28:14;101739.0;;;6.3;97.54
48892;BME280;50130;52.150;5.236;2022-12-05T06:29:52;101740.0;;;6.16;97.91
48892;BME280;50130;52.150;5.236;2022-12-05T06:33:07;101738.0;;;6.19;98.19
48892;BME280;50130;52.150;5.236;2022-12-05T06:34:44;101744.0;;;6.11;98.5
48892;BME280;50130;52.150;5.236;2022-12-05T06:36:21;101741.0;;;6.24;98.34
48892;BME280;50130;52.150;5.236;2022-12-05T06:39:34;101743.0;;;6.16;98.31
48892;BME280;50130;52.150;5.236;2022-12-05T06:41:19;101741.0;;;6.24;98.1
48892;BME280;50130;52.150;5.236;2022-12-05T06:42:55;101743.0;;;6.16;98.2
48892;BME280;50130;52.150;5.236;2022-12-05T06:44:32;101749.0;;;6.16;98.21
48892;BME280;50130;52.150;5.236;2022-12-05T06:47:47;101744.0;;;6.2;98.58
48892;BME280;50130;52.150;5.236;2022-12-05T06:49:25;101745.0;;;6.29;98.13
48892;BME280;50130;52.150;5.236;2022-12-05T06:51:02;101751.0;;;6.22;98.07
48892;BME280;50130;52.150;5.236;2022-12-05T06:52:38;101750.0;;;6.26;97.82
48892;BME280;50130;52.150;5.236;2022-12-05T06:55:55;101748.0;;;6.26;98.08
48892;BME280;50130;52.150;5.236;2022-12-05T06:57:32;101755.0;;;6.51;97.55
48892;BME280;50130;52.150;5.236;2022-12-05T06:59:08;101755.0;;;6.56;96.92
48892;BME280;50130;52.150;5.236;2022-12-05T07:03:26;101756.0;;;6.52;96.85
48892;BME280;50130;52.150;5.236;2022-12-05T07:06:39;101755.0;;;6.5;97.13
48892;BME280;50130;52.150;5.236;2022-12-05T07:08:17;101762.0;;;6.44;97.02
48892;BME280;50130;52.150;5.236;2022-12-05T07:09:53;101760.0;;;6.39;97.55
48892;BME280;50130;52.150;5.236;2022-12-05T07:11:30;101763.0;;;6.43;97.35
48892;BME280;50130;52.150;5.236;2022-12-05T07:14:43;101762.0;;;6.49;97.09
48892;BME280;50130;52.150;5.236;2022-12-05T07:16:20;101766.0;;;6.56;97.08
48892;BME280;50130;52.150;5.236;2022-12-05T07:17:56;101765.0;;;6.57;96.69
48892;BME280;50130;52.150;5.236;2022-12-05T07:21:11;101765.0;;;6.5;97.18
48892;BME280;50130;52.150;5.236;2022-12-05T07:22:49;101764.0;;;6.4;97.64
48892;BME280;50130;52.150;5.236;2022-12-05T07:24:25;101769.0;;;6.52;97.44
48892;BME280;50130;52.150;5.236;2022-12-05T07:27:40;101770.0;;;6.49;97.3
48892;BME280;50130;52.150;5.236;2022-12-05T07:29:17;101775.0;;;6.54;97.35
48892;BME280;50130;52.150;5.236;2022-12-05T07:31:02;101778.0;;;6.61;97.23
48892;BME280;50130;52.150;5.236;2022-12-05T07:32:41;101774.0;;;6.64;97.07
48892;BME280;50130;52.150;5.236;2022-12-05T07:35:58;101782.0;;;6.54;96.89
48892;BME280;50130;52.150;5.236;2022-12-05T07:37:36;101780.0;;;6.41;97.43
48892;BME280;50130;52.150;5.236;2022-12-05T07:39:12;101783.0;;;6.53;97.36
48892;BME280;50130;52.150;5.236;2022-12-05T07:40:48;101787.0;;;6.65;97.17
48892;BME280;50130;52.150;5.236;2022-12-05T07:44:00;101788.0;;;6.54;97.25
48892;BME280;50130;52.150;5.236;2022-12-05T07:45:36;101787.0;;;6.56;96.99
48892;BME280;50130;52.150;5.236;2022-12-05T07:47:12;101795.0;;;6.63;96.89
48892;BME280;50130;52.150;5.236;2022-12-05T07:50:26;101794.0;;;6.57;97.13
48892;BME280;50130;52.150;5.236;2022-12-05T07:52:02;101795.0;;;6.67;97.06
48892;BME280;50130;52.150;5.236;2022-12-05T07:53:41;101797.0;;;6.73;96.63
48892;BME280;50130;52.150;5.236;2022-12-05T07:56:54;101795.0;;;6.48;97.33
48892;BME280;50130;52.150;5.236;2022-12-05T07:58:30;101795.0;;;6.5;97.91
48892;BME280;50130;52.150;5.236;2022-12-05T08:00:09;101802.0;;;6.58;97.19
48892;BME280;50130;52.150;5.236;2022-12-05T08:01:45;101799.0;;;6.51;97.71
48892;BME280;50130;52.150;5.236;2022-12-05T08:04:58;101800.0;;;6.6;97.27
48892;BME280;50130;52.150;5.236;2022-12-05T08:06:35;101803.0;;;6.64;96.97
48892;BME280;50130;52.150;5.236;2022-12-05T08:08:11;101797.0;;;6.6;97.2
48892;BME280;50130;52.150;5.236;2022-12-05T08:11:26;101805.0;;;6.69;96.86
48892;BME280;50130;52.150;5.236;2022-12-05T08:13:03;101803.0;;;6.79;96.61
48892;BME280;50130;52.150;5.236;2022-12-05T08:14:40;101800.0;;;6.64;97.07
48892;BME280;50130;52.150;5.236;2022-12-05T08:17:55;101805.0;;;6.76;96.97
48892;BME280;50130;52.150;5.236;2022-12-05T08:19:31;101805.0;;;6.87;96.17
48892;BME280;50130;52.150;5.236;2022-12-05T08:21:09;101806.0;;;6.79;96.37
48892;BME280;50130;52.150;5.236;2022-12-05T08:22:49;101807.0;;;6.67;96.89
48892;BME280;50130;52.150;5.236;2022-12-05T08:26:04;101811.0;;;6.58;97.12
48892;BME280;50130;52.150;5.236;2022-12-05T08:27:41;101810.0;;;6.63;97.36
48892;BME280;50130;52.150;5.236;2022-12-05T08:31:02;101815.0;;;6.73;96.98
48892;BME280;50130;52.150;5.236;2022-12-05T08:32:39;101818.0;;;6.65;96.88
48892;BME280;50130;52.150;5.236;2022-12-05T08:35:53;101819.0;;;6.81;96.5
48892;BME280;50130;52.150;5.236;2022-12-05T08:37:30;101820.0;;;6.89;96.37
48892;BME280;50130;52.150;5.236;2022-12-05T08:40:46;101824.0;;;7.0;96.15
48892;BME280;50130;52.150;5.236;2022-12-05T08:42:23;101819.0;;;6.92;95.85
48892;BME280;50130;52.150;5.236;2022-12-05T08:44:01;101822.0;;;6.98;95.99
48892;BME280;50130;52.150;5.236;2022-12-05T08:45:40;101823.0;;;6.87;96.04
48892;BME280;50130;52.150;5.236;2022-12-05T08:49:01;101825.0;;;6.94;96.25
48892;BME280;50130;52.150;5.236;2022-12-05T08:50:38;101823.0;;;6.73;96.72
48892;BME280;50130;52.150;5.236;2022-12-05T08:52:14;101827.0;;;6.87;96.35
48892;BME280;50130;52.150;5.236;2022-12-05T08:55:26;101828.0;;;6.78;96.73
48892;BME280;50130;52.150;5.236;2022-12-05T08:57:02;101830.0;;;6.77;97.04
48892;BME280;50130;52.150;5.236;2022-12-05T08:58:39;101830.0;;;6.92;96.5
48892;BME280;50130;52.150;5.236;2022-12-05T09:00:17;101831.0;;;6.83;96.56
48892;BME280;50130;52.150;5.236;2022-12-05T09:03:30;101831.0;;;6.88;96.92
48892;BME280;50130;52.150;5.236;2022-12-05T09:05:07;101832.0;;;6.85;96.9
48892;BME280;50130;52.150;5.236;2022-12-05T09:06:44;101838.0;;;6.87;96.54
48892;BME280;50130;52.150;5.236;2022-12-05T09:09:58;101842.0;;;6.9;96.47
48892;BME280;50130;52.150;5.236;2022-12-05T09:11:37;101844.0;;;6.89;96.85
48892;BME280;50130;52.150;5.236;2022-12-05T09:13:14;101842.0;;;6.99;96.55
48892;BME280;50130;52.150;5.236;2022-12-05T09:18:07;101839.0;;;6.93;96.26
48892;BME280;50130;52.150;5.236;2022-12-05T09:19:44;101844.0;;;7.1;95.98
48892;BME280;50130;52.150;5.236;2022-12-05T09:21:22;101846.0;;;7.04;95.9
48892;BME280;50130;52.150;5.236;2022-12-05T09:24:36;101846.0;;;7.09;96.19
48892;BME280;50130;52.150;5.236;2022-12-05T09:26:15;101843.0;;;7.09;95.89
48892;BME280;50130;52.150;5.236;2022-12-05T09:27:53;101843.0;;;7.13;95.67
48892;BME280;50130;52.150;5.236;2022-12-05T09:31:12;101847.0;;;7.13;95.77
48892;BME280;50130;52.150;5.236;2022-12-05T09:32:50;101853.0;;;7.12;95.65
48892;BME280;50130;52.150;5.236;2022-12-05T09:34:28;101857.0;;;7.03;96.3
48892;BME280;50130;52.150;5.236;2022-12-05T09:36:06;101855.0;;;7.12;95.76
48892;BME280;50130;52.150;5.236;2022-12-05T09:41:04;101859.0;;;7.19;95.16
48892;BME280;50130;52.150;5.236;2022-12-05T09:45:50;101863.0;;;7.26;95.21
48892;BME280;50130;52.150;5.236;2022-12-05T09:47:35;101865.0;;;7.26;95.11
48892;BME280;50130;52.150;5.236;2022-12-05T09:49:17;101866.0;;;7.12;95.26
48892;BME280;50130;52.150;5.236;2022-12-05T09:50:57;101868.0;;;7.21;95.45
48892;BME280;50130;52.150;5.236;2022-12-05T09:54:19;101869.0;;;7.22;95.26
48892;BME280;50130;52.150;5.236;2022-12-05T09:56:02;101869.0;;;7.1;95.65
48892;BME280;50130;52.150;5.236;2022-12-05T09:57:44;101864.0;;;7.17;95.72
48892;BME280;50130;52.150;5.236;2022-12-05T09:59:24;101866.0;;;7.24;95.01
48892;BME280;50130;52.150;5.236;2022-12-05T10:02:55;101863.0;;;7.05;95.9
48892;BME280;50130;52.150;5.236;2022-12-05T10:04:51;101867.0;;;7.22;95.01
48892;BME280;50130;52.150;5.236;2022-12-05T10:06:34;101866.0;;;7.07;95.46
48892;BME280;50130;52.150;5.236;2022-12-05T10:08:20;101866.0;;;7.07;95.74
48892;BME280;50130;52.150;5.236;2022-12-05T10:13:52;101871.0;;;7.19;95.59
48892;BME280;50130;52.150;5.236;2022-12-05T10:15:39;101867.0;;;7.11;96.14
48892;BME280;50130;52.150;5.236;2022-12-05T10:19:03;101867.0;;;7.13;95.96
48892;BME280;50130;52.150;5.236;2022-12-05T10:20:47;101871.0;;;7.19;95.94
48892;BME280;50130;52.150;5.236;2022-12-05T10:22:29;101870.0;;;7.21;95.78
48892;BME280;50130;52.150;5.236;2022-12-05T10:24:25;101869.0;;;7.18;95.69
48892;BME280;50130;52.150;5.236;2022-12-05T10:26:08;101870.0;;;7.24;95.59
48892;BME280;50130;52.150;5.236;2022-12-05T10:29:29;101873.0;;;7.26;95.66
48892;BME280;50130;52.150;5.236;2022-12-05T10:31:10;101868.0;;;7.21;95.83
48892;BME280;50130;52.150;5.236;2022-12-05T10:32:52;101868.0;;;7.07;96.61
48892;BME280;50130;52.150;5.236;2022-12-05T10:34:33;101867.0;;;7.07;96.74
48892;BME280;50130;52.150;5.236;2022-12-05T10:37:55;101868.0;;;7.16;96.37
48892;BME280;50130;52.150;5.236;2022-12-05T10:39:33;101864.0;;;7.18;96.37
48892;BME280;50130;52.150;5.236;2022-12-05T10:41:12;101863.0;;;7.29;95.6
48892;BME280;50130;52.150;5.236;2022-12-05T10:42:49;101858.0;;;7.3;96.0
48892;BME280;50130;52.150;5.236;2022-12-05T10:46:03;101866.0;;;7.42;95.2
48892;BME280;50130;52.150;5.236;2022-12-05T10:47:40;101858.0;;;7.29;95.47
48892;BME280;50130;52.150;5.236;2022-12-05T10:49:18;101858.0;;;7.36;95.42
48892;BME280;50130;52.150;5.236;2022-12-05T10:52:34;101851.0;;;7.27;95.57
48892;BME280;50130;52.150;5.236;2022-12-05T10:54:16;101848.0;;;7.35;95.58
48892;BME280;50130;52.150;5.236;2022-12-05T10:55:54;101857.0;;;7.33;95.3
48892;BME280;50130;52.150;5.236;2022-12-05T10:57:30;101852.0;;;7.36;95.75
48892;BME280;50130;52.150;5.236;2022-12-05T11:00:49;101853.0;;;7.34;95.39
48892;BME280;50130;52.150;5.236;2022-12-05T11:02:28;101852.0;;;7.29;95.49
48892;BME280;50130;52.150;5.236;2022-12-05T11:04:12;101855.0;;;7.29;96.21
48892;BME280;50130;52.150;5.236;2022-12-05T11:05:57;101855.0;;;7.31;96.29
48892;BME280;50130;52.150;5.236;2022-12-05T11:09:24;101856.0;;;7.36;95.99
48892;BME280;50130;52.150;5.236;2022-12-05T11:11:04;101849.0;;;7.35;95.6
48892;BME280;50130;52.150;5.236;2022-12-05T11:12:41;101851.0;;;7.35;95.46
48892;BME280;50130;52.150;5.236;2022-12-05T11:14:21;101850.0;;;7.33;95.56
48892;BME280;50130;52.150;5.236;2022-12-05T11:17:38;101851.0;;;7.34;96.09
48892;BME280;50130;52.150;5.236;2022-12-05T11:19:21;101855.0;;;7.38;95.61
48892;BME280;50130;52.150;5.236;2022-12-05T11:21:12;101849.0;;;7.31;95.82
48892;BME280;50130;52.150;5.236;2022-12-05T11:22:51;101851.0;;;7.37;95.58
48892;BME280;50130;52.150;5.236;2022-12-05T11:26:17;101855.0;;;7.25;95.96
48892;BME280;50130;52.150;5.236;2022-12-05T11:29:35;101851.0;;;7.29;96.33
48892;BME280;50130;52.150;5.236;2022-12-05T11:36:11;101847.0;;;7.49;95.8
48892;BME280;50130;52.150;5.236;2022-12-05T11:37:53;101851.0;;;7.5;95.91